Time;durP1;ratioP1;P1;durP2;ratioP2;P2;SDS_P1;SDS_P2;PMS_P1;PMS_P2;Temp;Humidity;BMP_temperature;BMP_pressure;BME280_temperature;BME280_humidity;BME280_pressure;Samples;Min_cycle;Max_cycle;Signal;HPM_P1;HPM_P2
2023/06/26 00:01:06;;;;;;;4.47;3.10;;;21.10;86.60;;;;;;5093274;28;20440;-79
2023/06/26 00:03:33;;;;;;;4.80;3.30;;;21.10;87.30;;;;;;5093751;28;20858;-80
2023/06/26 00:06:00;;;;;;;3.67;2.80;;;21.00;87.40;;;;;;5094036;28;20504;-80
2023/06/26 00:08:27;;;;;;;4.90;2.90;;;20.90;89.00;;;;;;5093977;28;20467;-80
2023/06/26 00:10:54;;;;;;;4.60;2.73;;;20.80;89.20;;;;;;5093913;28;20514;-80
2023/06/26 00:13:21;;;;;;;3.70;2.70;;;20.80;89.60;;;;;;5093949;28;20454;-80
2023/06/26 00:15:49;;;;;;;5.70;2.93;;;20.70;89.90;;;;;;5093604;28;20439;-80
2023/06/26 00:18:15;;;;;;;3.80;2.50;;;20.60;90.40;;;;;;5093819;28;20482;-79
2023/06/26 00:20:42;;;;;;;4.77;3.20;;;20.60;90.60;;;;;;5093745;28;20439;-80
2023/06/26 00:23:09;;;;;;;5.00;2.77;;;20.50;90.90;;;;;;5093352;28;20482;-80
2023/06/26 00:25:36;;;;;;;4.67;2.97;;;20.50;91.10;;;;;;5093742;28;20455;-80
2023/06/26 00:28:02;;;;;;;4.40;2.57;;;20.50;90.90;;;;;;5093693;28;20466;-80
2023/06/26 00:30:29;;;;;;;7.80;3.60;;;20.50;90.90;;;;;;5093321;28;20479;-80
2023/06/26 00:32:57;;;;;;;8.87;3.87;;;20.40;91.20;;;;;;5093649;28;20454;-80
2023/06/26 00:35:24;;;;;;;3.93;2.90;;;20.40;91.00;;;;;;5093662;28;20545;-80
2023/06/26 00:37:51;;;;;;;7.97;2.83;;;20.40;91.30;;;;;;5093591;28;20463;-80
2023/06/26 00:40:18;;;;;;;3.17;2.50;;;20.30;91.70;;;;;;5093272;28;20966;-80
2023/06/26 00:42:44;;;;;;;4.97;3.20;;;20.30;91.50;;;;;;5093562;28;20466;-80
2023/06/26 00:45:11;;;;;;;4.57;2.80;;;20.30;91.60;;;;;;5093491;28;20443;-80
2023/06/26 00:47:38;;;;;;;4.63;2.50;;;20.30;92.30;;;;;;5093417;28;20486;-80
2023/06/26 00:50:07;;;;;;;3.90;2.50;;;20.30;92.50;;;;;;5093383;28;20451;-80
2023/06/26 00:52:34;;;;;;;7.53;4.93;;;20.30;92.20;;;;;;5093436;28;20439;-80
2023/06/26 00:55:01;;;;;;;5.80;3.07;;;20.20;92.10;;;;;;5093429;28;20447;-80
2023/06/26 00:57:28;;;;;;;6.10;3.67;;;20.20;92.20;;;;;;5093336;28;20475;-80
2023/06/26 00:59:55;;;;;;;4.43;2.67;;;20.20;92.10;;;;;;5093384;28;20455;-80
2023/06/26 01:02:22;;;;;;;4.13;3.73;;;20.20;92.70;;;;;;5093342;28;20455;-80
2023/06/26 01:04:49;;;;;;;3.43;2.20;;;20.20;92.00;;;;;;5093744;28;20459;-80
2023/06/26 01:07:19;;;;;;;4.03;2.27;;;20.20;91.70;;;;;;5093231;28;20444;-80
2023/06/26 01:09:48;;;;;;;2.90;2.57;;;20.20;91.50;;;;;;5093046;28;20998;-80
2023/06/26 01:12:15;;;;;;;4.23;3.00;;;20.20;92.40;;;;;;5093888;28;20483;-80
2023/06/26 01:14:42;;;;;;;5.67;2.93;;;20.20;92.10;;;;;;5097290;28;20454;-80
2023/06/26 01:17:11;;;;;;;2.83;2.60;;;20.20;91.90;;;;;;5096906;28;20451;-80
2023/06/26 01:19:39;;;;;;;4.57;3.10;;;20.20;91.70;;;;;;5097208;28;20444;-80
2023/06/26 01:22:15;;;;;;;9.20;3.43;;;20.20;92.30;;;;;;5096858;28;20475;-80
2023/06/26 01:24:54;;;;;;;4.10;3.17;;;20.20;92.30;;;;;;5096831;28;20930;-80
2023/06/26 01:27:23;;;;;;;4.10;2.83;;;20.20;92.20;;;;;;5096766;28;20424;-80
2023/06/26 01:29:52;;;;;;;4.53;3.10;;;20.10;92.60;;;;;;5097031;28;20447;-79
2023/06/26 01:32:19;;;;;;;3.77;3.00;;;20.10;92.20;;;;;;5096735;28;20479;-79
2023/06/26 01:34:46;;;;;;;3.03;2.80;;;20.10;92.30;;;;;;5096949;28;20458;-79
2023/06/26 01:37:13;;;;;;;3.60;2.43;;;20.10;92.10;;;;;;5096818;28;20782;-79
2023/06/26 01:39:40;;;;;;;6.30;3.07;;;20.10;92.20;;;;;;5097289;28;20447;-80
2023/06/26 01:42:07;;;;;;;5.73;2.17;;;20.10;92.70;;;;;;5096790;28;20809;-80
2023/06/26 01:44:41;;;;;;;5.70;2.90;;;20.10;92.60;;;;;;5096734;28;20444;-80
2023/06/26 01:47:10;;;;;;;5.57;2.77;;;20.10;93.10;;;;;;5096629;28;20427;-80
2023/06/26 01:49:47;;;;;;;5.80;3.23;;;20.00;93.00;;;;;;5096314;28;20829;-80
2023/06/26 01:52:21;;;;;;;3.60;2.70;;;20.00;93.00;;;;;;5096576;28;20474;-80
2023/06/26 01:54:56;;;;;;;7.40;2.93;;;20.00;92.90;;;;;;5096566;28;20427;-80
2023/06/26 01:57:23;;;;;;;4.87;3.53;;;20.00;93.50;;;;;;5096465;28;20465;-79
2023/06/26 01:59:52;;;;;;;4.10;3.23;;;19.90;93.10;;;;;;5096466;28;20439;-79
2023/06/26 02:02:19;;;;;;;4.23;2.50;;;19.90;93.30;;;;;;5096077;28;20939;-80
2023/06/26 02:04:48;;;;;;;5.00;3.40;;;19.90;93.30;;;;;;5096046;28;20970;-80
2023/06/26 02:07:15;;;;;;;3.10;2.70;;;19.90;93.10;;;;;;5096230;28;20444;-79
2023/06/26 02:09:41;;;;;;;5.90;3.10;;;19.90;93.30;;;;;;5096312;28;20462;-79
2023/06/26 02:12:08;;;;;;;6.17;3.90;;;19.90;93.50;;;;;;5096120;28;20479;-80
2023/06/26 02:14:35;;;;;;;4.93;3.33;;;19.90;93.90;;;;;;5096175;28;20448;-80
2023/06/26 02:17:03;;;;;;;4.10;3.03;;;19.80;93.70;;;;;;5096058;28;20812;-80
2023/06/26 02:19:30;;;;;;;3.87;3.50;;;19.90;93.50;;;;;;5095754;28;20444;-80
2023/06/26 02:21:57;;;;;;;7.17;3.27;;;19.90;94.00;;;;;;5095725;28;20476;-80
2023/06/26 02:24:24;;;;;;;4.57;3.43;;;19.80;94.00;;;;;;5095032;28;20443;-80
2023/06/26 02:26:50;;;;;;;3.53;2.83;;;19.90;94.20;;;;;;5095607;28;20789;-79
2023/06/26 02:29:17;;;;;;;5.60;2.93;;;19.80;95.10;;;;;;5095807;28;20471;-79
2023/06/26 02:31:44;;;;;;;7.60;3.17;;;19.70;94.70;;;;;;5095738;28;20480;-79
2023/06/26 02:34:12;;;;;;;6.00;3.20;;;19.70;94.80;;;;;;5095807;28;20448;-79
2023/06/26 02:36:39;;;;;;;2.53;2.13;;;19.70;94.40;;;;;;5096304;28;20440;-79
2023/06/26 02:39:06;;;;;;;3.63;3.07;;;19.70;94.20;;;;;;5095678;28;20460;-79
2023/06/26 02:41:32;;;;;;;5.10;2.80;;;19.60;94.80;;;;;;5095628;28;20440;-79
2023/06/26 02:43:59;;;;;;;3.23;2.60;;;19.60;94.70;;;;;;5095305;28;20448;-79
2023/06/26 02:46:26;;;;;;;6.70;3.30;;;19.60;94.90;;;;;;5095283;28;20444;-79
2023/06/26 02:48:52;;;;;;;3.80;2.73;;;19.60;94.90;;;;;;5095138;28;20466;-79
2023/06/26 02:51:20;;;;;;;3.27;2.47;;;19.50;94.80;;;;;;5095376;28;20554;-79
2023/06/26 02:53:47;;;;;;;6.53;2.70;;;19.60;95.40;;;;;;5095134;28;20951;-79
2023/06/26 02:56:14;;;;;;;3.77;2.57;;;19.50;95.20;;;;;;5095381;28;20444;-79
2023/06/26 02:58:41;;;;;;;2.87;2.67;;;19.50;95.70;;;;;;5095240;28;20471;-79
2023/06/26 03:01:07;;;;;;;5.70;2.70;;;19.50;95.30;;;;;;5095246;28;20440;-79
2023/06/26 03:03:40;;;;;;;5.13;3.30;;;19.40;95.30;;;;;;5094918;28;20573;-79
2023/06/26 03:06:07;;;;;;;3.40;3.10;;;19.40;95.20;;;;;;5095227;28;20442;-79
2023/06/26 03:08:38;;;;;;;10.60;3.70;;;19.40;95.40;;;;;;5095060;28;20459;-80
2023/06/26 03:11:05;;;;;;;3.63;2.50;;;19.40;95.40;;;;;;5095038;28;20460;-80
2023/06/26 03:13:33;;;;;;;6.57;2.83;;;19.30;95.30;;;;;;5095022;28;20444;-80
2023/06/26 03:16:00;;;;;;;6.13;3.20;;;19.30;95.40;;;;;;5094963;28;20451;-80
2023/06/26 03:18:27;;;;;;;6.60;3.47;;;19.30;95.40;;;;;;5095268;28;20816;-80
2023/06/26 03:20:54;;;;;;;2.83;2.20;;;19.40;95.70;;;;;;5094579;28;20813;-80
2023/06/26 03:23:21;;;;;;;4.27;2.97;;;19.30;95.50;;;;;;5094856;28;20493;-79
2023/06/26 03:25:50;;;;;;;4.13;2.90;;;19.30;95.80;;;;;;5094755;28;20636;-80
2023/06/26 03:28:17;;;;;;;6.20;3.43;;;19.20;95.50;;;;;;5094667;28;20468;-80
2023/06/26 03:30:44;;;;;;;5.20;3.37;;;19.10;95.70;;;;;;5094719;28;20788;-79
2023/06/26 03:33:11;;;;;;;5.30;2.60;;;19.10;96.10;;;;;;5094513;28;20475;-79
2023/06/26 03:35:38;;;;;;;6.63;3.00;;;19.20;96.10;;;;;;5094457;28;20440;-79
2023/06/26 03:38:05;;;;;;;5.13;3.10;;;19.20;96.30;;;;;;5094516;28;20471;-79
2023/06/26 03:40:32;;;;;;;6.00;3.57;;;19.20;96.30;;;;;;5094507;28;20440;-79
2023/06/26 03:43:00;;;;;;;7.20;2.87;;;19.20;96.30;;;;;;5094232;28;20447;-79
2023/06/26 03:45:26;;;;;;;2.97;2.77;;;19.20;96.30;;;;;;5094062;28;20956;-79
2023/06/26 03:47:53;;;;;;;4.17;2.90;;;19.30;96.20;;;;;;5094267;28;20468;-79
2023/06/26 03:50:20;;;;;;;3.93;2.43;;;19.30;96.10;;;;;;5094880;28;20765;-79
2023/06/26 03:52:47;;;;;;;5.97;3.03;;;19.30;96.20;;;;;;5094267;28;20480;-79
2023/06/26 03:55:14;;;;;;;5.90;2.70;;;19.40;96.40;;;;;;5093941;28;20935;-79
2023/06/26 03:57:41;;;;;;;3.27;2.67;;;19.40;96.40;;;;;;5094151;28;20479;-79
2023/06/26 04:00:12;;;;;;;4.70;2.70;;;19.50;96.50;;;;;;5094148;28;20439;-79
2023/06/26 04:02:39;;;;;;;7.63;3.13;;;19.40;96.40;;;;;;5093848;28;20900;-79
2023/06/26 04:05:06;;;;;;;3.13;2.60;;;19.40;96.50;;;;;;5094065;28;20444;-79
2023/06/26 04:07:34;;;;;;;5.70;2.90;;;19.40;96.80;;;;;;5093693;28;20471;-79
2023/06/26 04:10:01;;;;;;;4.57;2.70;;;19.50;96.60;;;;;;5093693;28;20452;-80
2023/06/26 04:12:28;;;;;;;5.40;2.90;;;19.40;96.50;;;;;;5093898;28;20475;-80
2023/06/26 04:14:54;;;;;;;3.83;2.50;;;19.50;96.50;;;;;;5093925;28;20448;-80
2023/06/26 04:17:22;;;;;;;3.27;2.97;;;19.40;96.60;;;;;;5093506;28;20455;-80
2023/06/26 04:19:49;;;;;;;6.40;2.87;;;19.40;97.00;;;;;;5093856;28;20448;-80
2023/06/26 04:22:16;;;;;;;4.13;2.70;;;19.40;97.00;;;;;;5093451;28;20479;-80
2023/06/26 04:24:43;;;;;;;5.07;2.70;;;19.50;97.20;;;;;;5093843;28;20455;-80
2023/06/26 04:27:10;;;;;;;3.20;2.63;;;19.50;97.20;;;;;;5093640;28;20470;-80
2023/06/26 04:29:37;;;;;;;4.70;2.70;;;19.60;97.50;;;;;;5093665;28;20884;-80
2023/06/26 04:32:04;;;;;;;6.30;3.20;;;19.60;97.20;;;;;;5093279;28;21002;-80
2023/06/26 04:34:35;;;;;;;3.30;2.60;;;19.60;97.50;;;;;;5093624;28;20463;-80
2023/06/26 04:37:04;;;;;;;3.27;2.93;;;19.60;97.20;;;;;;5093815;28;20432;-80
2023/06/26 04:39:31;;;;;;;4.63;2.10;;;19.60;97.60;;;;;;5093558;28;20456;-80
2023/06/26 04:41:58;;;;;;;7.87;3.20;;;19.60;97.70;;;;;;5093530;28;20444;-80
2023/06/26 04:44:25;;;;;;;4.73;3.20;;;19.70;97.70;;;;;;5093526;28;20440;-79
2023/06/26 04:46:52;;;;;;;4.97;3.20;;;19.70;98.10;;;;;;5092989;28;20446;-80
2023/06/26 04:49:19;;;;;;;9.73;3.30;;;19.60;97.60;;;;;;5093106;28;20468;-80
2023/06/26 04:51:48;;;;;;;4.70;2.93;;;19.60;98.00;;;;;;5093374;28;20591;-80
2023/06/26 04:54:15;;;;;;;5.13;2.77;;;19.60;98.20;;;;;;5093428;28;20447;-80
2023/06/26 04:56:43;;;;;;;3.07;2.47;;;19.70;98.10;;;;;;5093408;28;20483;-80
2023/06/26 04:59:12;;;;;;;3.13;2.83;;;19.80;98.50;;;;;;5093307;28;20482;-80
2023/06/26 05:01:39;;;;;;;5.33;3.37;;;19.90;98.50;;;;;;5093341;28;20440;-80
2023/06/26 05:04:06;;;;;;;4.03;2.90;;;19.90;98.60;;;;;;5093352;28;20452;-80
2023/06/26 05:06:33;;;;;;;5.40;3.20;;;19.90;98.70;;;;;;5093299;28;20439;-80
2023/06/26 05:09:01;;;;;;;5.40;3.30;;;20.00;98.90;;;;;;5092870;28;20472;-80
2023/06/26 05:11:28;;;;;;;3.10;2.80;;;19.90;98.70;;;;;;5093195;28;20451;-80
2023/06/26 05:13:54;;;;;;;5.40;2.80;;;19.90;98.80;;;;;;5093218;28;20455;-80
2023/06/26 05:16:21;;;;;;;6.47;2.80;;;20.00;99.40;;;;;;5093200;28;20448;-80
2023/06/26 05:18:48;;;;;;;3.20;2.87;;;19.90;99.20;;;;;;5093137;28;20465;-80
2023/06/26 05:21:16;;;;;;;3.30;2.70;;;19.90;99.50;;;;;;5092723;28;20475;-80
2023/06/26 05:23:44;;;;;;;4.70;2.80;;;19.90;99.90;;;;;;5093155;28;20432;-80
2023/06/26 05:26:13;;;;;;;7.67;3.20;;;20.00;99.90;;;;;;5092784;28;20965;-80
2023/06/26 05:28:40;;;;;;;5.77;4.03;;;20.10;99.90;;;;;;5093034;28;20520;-80
2023/06/26 05:31:07;;;;;;;6.73;3.67;;;20.20;99.90;;;;;;5093069;28;20454;-80
2023/06/26 05:33:36;;;;;;;2.90;2.70;;;20.20;99.90;;;;;;5092941;28;20486;-80
2023/06/26 05:36:05;;;;;;;5.00;3.37;;;20.30;99.90;;;;;;5093075;28;20447;-80
2023/06/26 05:38:33;;;;;;;3.57;2.50;;;20.30;99.90;;;;;;5092966;28;20459;-80
2023/06/26 05:41:00;;;;;;;2.67;2.40;;;20.40;99.90;;;;;;5092986;28;20459;-80
2023/06/26 05:43:28;;;;;;;2.93;2.73;;;20.50;99.90;;;;;;5092700;28;20950;-80
2023/06/26 05:45:55;;;;;;;3.20;2.70;;;20.60;99.90;;;;;;5092958;28;20454;-80
2023/06/26 05:48:21;;;;;;;3.23;2.53;;;20.70;99.90;;;;;;5092561;28;20463;-80
2023/06/26 05:50:49;;;;;;;3.33;2.20;;;20.80;99.90;;;;;;5092928;28;20455;-80
2023/06/26 05:53:16;;;;;;;5.20;3.20;;;20.90;99.90;;;;;;5092844;28;20479;-80
2023/06/26 05:55:43;;;;;;;3.47;2.63;;;21.10;99.90;;;;;;5092592;28;20964;-80
2023/06/26 05:58:11;;;;;;;3.33;2.70;;;21.20;99.90;;;;;;5092469;28;20503;-80
2023/06/26 06:00:40;;;;;;;3.93;2.37;;;21.40;99.90;;;;;;5095527;28;20451;-80
2023/06/26 06:03:07;;;;;;;4.87;2.43;;;21.50;99.70;;;;;;5096127;28;20447;-80
2023/06/26 06:05:34;;;;;;;4.60;2.83;;;21.70;99.30;;;;;;5096431;28;20450;-80
2023/06/26 06:08:01;;;;;;;3.13;2.53;;;21.80;99.30;;;;;;5096270;28;20478;-80
2023/06/26 06:10:27;;;;;;;2.17;1.90;;;22.00;98.60;;;;;;5096005;28;20439;-80
2023/06/26 06:12:54;;;;;;;3.30;2.43;;;22.10;98.40;;;;;;5095845;28;21016;-80
2023/06/26 06:15:21;;;;;;;4.93;2.10;;;22.30;98.40;;;;;;5096082;28;20504;-80
2023/06/26 06:17:49;;;;;;;3.30;2.60;;;22.40;98.40;;;;;;5095735;28;20997;-80
2023/06/26 06:20:16;;;;;;;3.93;2.80;;;22.60;97.90;;;;;;5096114;28;20454;-81
2023/06/26 06:22:43;;;;;;;3.50;2.40;;;22.70;97.60;;;;;;5095557;28;20515;-80
2023/06/26 06:25:10;;;;;;;4.27;3.50;;;22.90;98.20;;;;;;5095745;28;20439;-80
2023/06/26 06:27:37;;;;;;;2.50;2.25;;;23.10;97.60;;;;;;5095586;28;20474;-80
2023/06/26 06:30:04;;;;;;;4.00;2.63;;;23.50;97.10;;;;;;5095566;28;20569;-80
2023/06/26 06:32:31;;;;;;;2.50;2.00;;;23.70;96.70;;;;;;5095754;28;20247;-80
2023/06/26 06:34:59;;;;;;;2.72;2.53;;;24.00;95.70;;;;;;5095777;28;20216;-80
2023/06/26 06:37:26;;;;;;;3.35;2.75;;;24.30;95.90;;;;;;5095377;28;20217;-80
2023/06/26 06:39:53;;;;;;;3.15;2.67;;;24.60;94.80;;;;;;5095738;28;20192;-81
2023/06/26 06:42:19;;;;;;;2.50;2.20;;;25.00;94.40;;;;;;5095694;28;20192;-81
2023/06/26 06:44:46;;;;;;;3.42;2.58;;;25.30;93.70;;;;;;5096453;28;20212;-81
2023/06/26 06:47:13;;;;;;;2.53;2.30;;;25.70;92.60;;;;;;5095753;28;20205;-81
2023/06/26 06:49:40;;;;;;;2.05;1.85;;;26.10;92.20;;;;;;5095543;28;20533;-81
2023/06/26 06:52:08;;;;;;;2.10;1.90;;;26.20;91.80;;;;;;5095422;28;20201;-81
2023/06/26 06:54:52;;;;;;;2.75;2.40;;;26.20;91.70;;;;;;5095145;28;20276;-81
2023/06/26 06:57:19;;;;;;;3.00;2.28;;;26.30;91.50;;;;;;5095359;28;20276;-81
2023/06/26 06:59:47;;;;;;;2.70;2.50;;;26.30;91.40;;;;;;5095362;28;20201;-81
2023/06/26 07:02:14;;;;;;;2.85;2.28;;;26.50;91.30;;;;;;5095236;28;20284;-80
2023/06/26 07:04:40;;;;;;;4.38;2.75;;;26.40;91.20;;;;;;5095262;28;20208;-81
2023/06/26 07:07:09;;;;;;;3.28;2.30;;;26.50;90.80;;;;;;5095141;28;20205;-81
2023/06/26 07:09:36;;;;;;;2.03;1.90;;;26.60;90.80;;;;;;5094785;28;20300;-81
2023/06/26 07:12:03;;;;;;;2.28;2.08;;;26.70;90.90;;;;;;5094965;28;20212;-81
2023/06/26 07:14:31;;;;;;;4.15;3.05;;;26.80;90.60;;;;;;5095084;28;20308;-80
2023/06/26 07:16:57;;;;;;;3.28;2.38;;;27.00;90.60;;;;;;5095001;28;20205;-81
2023/06/26 07:19:24;;;;;;;3.92;2.95;;;27.20;89.10;;;;;;5094890;28;20632;-81
2023/06/26 07:21:51;;;;;;;2.50;2.30;;;27.30;90.00;;;;;;5094378;28;20233;-81
2023/06/26 07:24:19;;;;;;;2.47;2.10;;;27.40;89.50;;;;;;5094843;28;20197;-81
2023/06/26 07:26:46;;;;;;;2.65;2.40;;;27.50;89.00;;;;;;5094827;28;20205;-81
2023/06/26 07:29:12;;;;;;;2.50;2.28;;;27.70;88.50;;;;;;5094723;28;20228;-81
2023/06/26 07:31:39;;;;;;;4.20;2.67;;;27.90;86.90;;;;;;5094670;28;20229;-81
2023/06/26 07:34:06;;;;;;;3.25;2.38;;;28.00;87.70;;;;;;5094570;28;20588;-81
2023/06/26 07:36:33;;;;;;;2.30;2.10;;;28.40;87.50;;;;;;5094344;28;20186;-81
2023/06/26 07:38:59;;;;;;;2.50;2.30;;;28.40;87.00;;;;;;5094486;28;20227;-80
2023/06/26 07:41:30;;;;;;;2.53;2.28;;;28.60;84.90;;;;;;5094220;28;20577;-80
2023/06/26 07:43:57;;;;;;;2.42;2.17;;;28.80;84.30;;;;;;5094541;28;20280;-80
2023/06/26 07:46:24;;;;;;;1.70;1.58;;;28.90;84.70;;;;;;5094296;28;20212;-80
2023/06/26 07:48:51;;;;;;;6.90;2.47;;;29.20;84.50;;;;;;5094346;28;20241;-80
2023/06/26 07:51:17;;;;;;;2.53;2.28;;;29.30;83.50;;;;;;5094371;28;20209;-80
2023/06/26 07:53:44;;;;;;;2.10;1.90;;;29.40;82.60;;;;;;5094252;28;20218;-81
2023/06/26 07:56:11;;;;;;;2.47;2.28;;;29.40;81.30;;;;;;5094260;28;20206;-81
2023/06/26 07:58:39;;;;;;;2.30;2.10;;;29.50;81.00;;;;;;5094165;28;20220;-81
2023/06/26 08:01:05;;;;;;;1.92;1.83;;;29.60;82.10;;;;;;5094176;28;20201;-80
2023/06/26 08:03:32;;;;;;;2.85;2.17;;;29.80;81.00;;;;;;5094110;28;20205;-80
2023/06/26 08:05:59;;;;;;;2.33;2.13;;;30.00;81.50;;;;;;5093766;28;20673;-80
2023/06/26 08:08:26;;;;;;;2.75;2.55;;;30.30;80.40;;;;;;5094052;28;20324;-80
2023/06/26 08:10:52;;;;;;;2.35;1.55;;;30.60;79.50;;;;;;5094142;28;20213;-80
2023/06/26 08:13:19;;;;;;;1.75;1.65;;;30.90;77.40;;;;;;5093956;28;20225;-80
2023/06/26 08:15:47;;;;;;;2.85;2.45;;;31.30;76.10;;;;;;5093934;28;20208;-80
2023/06/26 08:18:14;;;;;;;2.05;1.95;;;31.80;72.20;;;;;;5093815;28;20244;-80
2023/06/26 08:20:41;;;;;;;2.28;2.08;;;32.30;69.50;;;;;;5093883;28;20203;-80
2023/06/26 08:23:07;;;;;;;1.77;1.67;;;32.80;69.00;;;;;;5092627;28;20232;-80
2023/06/26 08:25:34;;;;;;;1.77;1.67;;;33.50;67.80;;;;;;5093450;28;20201;-80
2023/06/26 08:28:01;;;;;;;1.95;1.70;;;34.10;64.70;;;;;;5093742;28;20254;-80
2023/06/26 08:30:28;;;;;;;2.45;2.22;;;34.60;64.10;;;;;;5093787;28;20190;-80
2023/06/26 08:32:56;;;;;;;1.90;1.80;;;35.30;63.50;;;;;;5093627;28;20224;-80
2023/06/26 08:35:23;;;;;;;1.88;1.77;;;35.60;59.90;;;;;;5093651;28;20205;-80
2023/06/26 08:37:50;;;;;;;1.85;1.75;;;35.40;59.90;;;;;;5093256;28;20223;-80
2023/06/26 08:40:18;;;;;;;1.80;1.70;;;35.20;60.10;;;;;;5093686;28;20206;-80
2023/06/26 08:42:46;;;;;;;2.30;2.10;;;34.80;57.70;;;;;;5093589;28;20261;-80
2023/06/26 08:45:16;;;;;;;1.63;1.52;;;34.40;59.00;;;;;;5093205;28;20211;-80
2023/06/26 08:47:46;;;;;;;2.08;1.98;;;34.30;59.20;;;;;;5093411;28;20219;-80
2023/06/26 08:50:14;;;;;;;2.00;1.77;;;34.00;59.30;;;;;;5093184;28;20581;-79
2023/06/26 08:52:46;;;;;;;1.50;1.40;;;33.80;59.40;;;;;;5093020;28;20680;-80
2023/06/26 08:55:16;;;;;;;1.70;1.60;;;33.70;60.30;;;;;;5093489;28;20194;-80
2023/06/26 08:57:42;;;;;;;3.03;1.92;;;33.90;59.40;;;;;;5093377;28;20234;-80
2023/06/26 09:00:11;;;;;;;1.58;1.48;;;34.10;58.60;;;;;;5093402;28;20206;-80
2023/06/26 09:02:37;;;;;;;1.92;1.83;;;34.30;58.00;;;;;;5093335;28;20201;-80
2023/06/26 09:05:05;;;;;;;2.10;2.00;;;34.30;57.50;;;;;;5093334;28;20212;-80
2023/06/26 09:07:33;;;;;;;1.85;1.75;;;34.20;56.70;;;;;;5092959;28;20221;-80
2023/06/26 09:10:00;;;;;;;1.95;1.75;;;34.10;57.30;;;;;;5092986;28;20201;-80
2023/06/26 09:12:28;;;;;;;1.90;1.80;;;33.90;57.80;;;;;;5093265;28;20210;-80
2023/06/26 09:14:56;;;;;;;1.98;1.88;;;33.50;58.30;;;;;;5092860;28;20721;-80
2023/06/26 09:17:25;;;;;;;2.03;1.83;;;33.20;58.30;;;;;;5093192;28;20221;-80
2023/06/26 09:19:52;;;;;;;2.17;2.08;;;32.90;59.30;;;;;;5093184;28;20201;-80
2023/06/26 09:22:19;;;;;;;2.40;2.17;;;32.50;60.00;;;;;;5092715;28;20237;-80
2023/06/26 09:24:47;;;;;;;3.33;1.85;;;32.20;59.40;;;;;;5093144;28;20200;-80
2023/06/26 09:27:14;;;;;;;2.08;1.88;;;32.00;60.00;;;;;;5093010;28;20204;-80
2023/06/26 09:29:41;;;;;;;1.83;1.73;;;31.60;60.70;;;;;;5093129;28;20198;-80
2023/06/26 09:32:09;;;;;;;1.40;1.30;;;31.30;60.60;;;;;;5092816;28;20670;-79
2023/06/26 09:34:36;;;;;;;2.67;2.47;;;31.30;60.60;;;;;;5096107;28;20220;-79
2023/06/26 09:37:05;;;;;;;2.55;2.35;;;31.30;61.10;;;;;;5096992;28;20203;-79
2023/06/26 09:39:32;;;;;;;2.58;2.38;;;31.20;61.60;;;;;;5096684;28;20540;-80
2023/06/26 09:42:01;;;;;;;2.42;1.60;;;31.00;61.70;;;;;;5096856;28;20211;-79
2023/06/26 09:44:31;;;;;;;2.63;2.42;;;31.10;61.90;;;;;;5096868;28;20180;-80
2023/06/26 09:46:58;;;;;;;1.90;1.80;;;31.30;62.10;;;;;;5096522;28;20196;-80
2023/06/26 09:49:25;;;;;;;1.80;1.70;;;31.40;61.20;;;;;;5096690;28;20235;-80
2023/06/26 09:51:53;;;;;;;1.85;1.75;;;31.60;61.40;;;;;;5096665;28;20210;-80
2023/06/26 09:54:22;;;;;;;2.92;2.00;;;31.60;61.10;;;;;;5096287;28;20724;-79
2023/06/26 09:56:50;;;;;;;2.15;1.95;;;31.60;61.90;;;;;;5096542;28;20228;-80
2023/06/26 09:59:18;;;;;;;2.40;2.22;;;31.40;61.80;;;;;;5096375;28;20586;-80
2023/06/26 10:01:46;;;;;;;2.17;2.00;;;31.30;61.70;;;;;;5096170;28;20198;-80
2023/06/26 10:04:14;;;;;;;1.73;1.63;;;31.10;61.20;;;;;;5096483;28;20198;-80
2023/06/26 10:06:47;;;;;;;2.38;2.17;;;30.80;63.00;;;;;;5096413;28;20252;-80
2023/06/26 10:09:17;;;;;;;2.20;2.00;;;30.60;61.70;;;;;;5096321;28;20253;-80
2023/06/26 10:11:49;;;;;;;2.33;2.13;;;30.70;63.10;;;;;;5096308;28;20201;-80
2023/06/26 10:14:20;;;;;;;3.97;2.65;;;30.90;62.80;;;;;;5096241;28;20233;-80
2023/06/26 10:16:50;;;;;;;3.03;2.83;;;31.10;62.40;;;;;;5096193;28;20188;-80
2023/06/26 10:19:23;;;;;;;2.50;2.28;;;31.50;62.00;;;;;;5096033;28;20227;-80
2023/06/26 10:21:52;;;;;;;1.95;1.73;;;31.80;61.20;;;;;;5095516;28;20234;-80
2023/06/26 10:24:20;;;;;;;2.75;2.25;;;32.10;59.80;;;;;;5095644;28;20577;-80
2023/06/26 10:26:48;;;;;;;4.70;2.28;;;32.30;59.10;;;;;;5095981;28;20209;-80
2023/06/26 10:29:18;;;;;;;2.65;2.45;;;32.30;59.20;;;;;;5095811;28;20591;-80
2023/06/26 10:31:50;;;;;;;2.80;2.22;;;32.30;60.20;;;;;;5095834;28;20200;-80
2023/06/26 10:34:17;;;;;;;2.63;2.42;;;32.10;61.90;;;;;;5095262;28;20212;-80
2023/06/26 10:36:44;;;;;;;2.72;2.53;;;31.80;64.00;;;;;;5095769;28;20211;-80
2023/06/26 10:39:10;;;;;;;2.67;2.47;;;31.50;65.40;;;;;;5095370;28;20734;-81
2023/06/26 10:41:38;;;;;;;4.05;2.80;;;31.30;67.20;;;;;;5095645;28;20218;-80
2023/06/26 10:44:12;;;;;;;3.20;2.58;;;31.20;68.30;;;;;;5095554;28;20247;-81
2023/06/26 10:46:58;;;;;;;3.00;2.55;;;31.10;68.70;;;;;;5095037;28;20187;-80
2023/06/26 10:49:30;;;;;;;2.42;2.20;;;31.20;69.70;;;;;;5095101;28;20759;-80
2023/06/26 10:52:02;;;;;;;2.72;2.45;;;31.50;70.10;;;;;;5095444;28;20568;-80
2023/06/26 10:54:32;;;;;;;2.30;2.08;;;31.40;70.00;;;;;;5095119;28;20202;-80
2023/06/26 10:56:59;;;;;;;3.25;2.60;;;31.60;70.00;;;;;;5095535;28;20187;-81
2023/06/26 10:59:27;;;;;;;2.17;1.98;;;31.70;69.40;;;;;;5095321;28;20318;-81
2023/06/26 11:02:00;;;;;;;2.60;2.40;;;31.80;68.80;;;;;;5094884;28;20203;-81
2023/06/26 11:04:38;;;;;;;2.55;2.35;;;31.90;67.80;;;;;;5095296;28;20187;-80
2023/06/26 11:07:24;;;;;;;2.28;2.17;;;31.80;67.40;;;;;;5094780;28;20189;-79
2023/06/26 11:10:01;;;;;;;3.08;2.88;;;31.60;68.70;;;;;;5095166;28;20561;-79
2023/06/26 11:12:41;;;;;;;2.50;2.30;;;31.50;68.10;;;;;;5094767;28;20630;-80
2023/06/26 11:15:09;;;;;;;3.15;2.92;;;31.50;68.40;;;;;;5094555;28;20267;-80
2023/06/26 11:17:38;;;;;;;3.33;3.03;;;31.40;68.00;;;;;;5094976;28;20219;-80
2023/06/26 11:20:07;;;;;;;3.10;2.47;;;31.50;69.70;;;;;;5094733;28;20536;-81
2023/06/26 11:22:36;;;;;;;4.75;3.65;;;31.50;67.20;;;;;;5094472;28;20231;-80
2023/06/26 11:25:05;;;;;;;3.33;2.38;;;31.50;66.90;;;;;;5094474;28;20230;-81
2023/06/26 11:27:33;;;;;;;3.42;1.85;;;31.40;65.00;;;;;;5094764;28;20227;-81
2023/06/26 11:30:00;;;;;;;3.13;2.70;;;31.30;66.00;;;;;;5094791;28;20209;-79
2023/06/26 11:32:28;;;;;;;3.40;2.17;;;31.20;66.50;;;;;;5094559;28;20680;-80
2023/06/26 11:34:56;;;;;;;2.42;2.22;;;31.00;67.00;;;;;;5094696;28;20249;-80
2023/06/26 11:37:26;;;;;;;3.05;2.33;;;31.10;67.60;;;;;;5094660;28;20209;-81
2023/06/26 11:39:53;;;;;;;3.42;3.13;;;31.10;68.00;;;;;;5094738;28;20259;-79
2023/06/26 11:42:21;;;;;;;2.60;2.40;;;31.20;67.80;;;;;;5094549;28;20197;-79
2023/06/26 11:44:48;;;;;;;3.50;3.08;;;31.30;69.50;;;;;;5094165;28;20205;-79
2023/06/26 11:47:16;;;;;;;2.78;2.58;;;31.20;68.80;;;;;;5094403;28;20205;-80
2023/06/26 11:49:44;;;;;;;2.63;2.42;;;31.30;68.80;;;;;;5094447;28;20197;-80
2023/06/26 11:52:12;;;;;;;4.25;2.92;;;31.40;70.80;;;;;;5094324;28;20205;-80
2023/06/26 11:54:39;;;;;;;2.90;2.67;;;31.30;69.50;;;;;;5094179;28;20220;-79
2023/06/26 11:57:05;;;;;;;2.67;2.47;;;31.30;69.60;;;;;;5094153;28;20202;-80
2023/06/26 11:59:36;;;;;;;4.07;2.70;;;31.30;69.70;;;;;;5094262;28;20201;-80
2023/06/26 12:02:07;;;;;;;2.25;2.15;;;31.30;70.10;;;;;;5094079;28;20259;-80
2023/06/26 12:04:35;;;;;;;2.58;2.38;;;31.30;69.40;;;;;;5094104;28;20220;-80
2023/06/26 12:07:04;;;;;;;2.85;2.65;;;31.30;68.70;;;;;;5093707;28;20683;-79
2023/06/26 12:09:34;;;;;;;2.70;2.50;;;31.30;69.00;;;;;;5093641;28;20299;-79
2023/06/26 12:12:02;;;;;;;2.15;2.05;;;31.30;70.50;;;;;;5093656;28;20237;-79
2023/06/26 12:14:29;;;;;;;3.08;2.78;;;31.30;70.30;;;;;;5093793;28;20298;-81
2023/06/26 12:16:56;;;;;;;2.47;2.28;;;31.20;70.50;;;;;;5093856;28;20246;-81
2023/06/26 12:19:26;;;;;;;3.40;2.25;;;31.20;71.50;;;;;;5093419;28;20733;-79
2023/06/26 12:21:56;;;;;;;3.35;2.50;;;31.10;71.20;;;;;;5093808;28;20291;-78
2023/06/26 12:24:25;;;;;;;2.85;2.30;;;31.10;72.40;;;;;;5093762;28;20265;-79
2023/06/26 12:26:56;;;;;;;2.55;2.35;;;31.00;72.50;;;;;;5093695;28;20202;-78
2023/06/26 12:29:30;;;;;;;3.08;2.80;;;30.90;73.50;;;;;;5093334;28;20222;-79
2023/06/26 12:31:57;;;;;;;2.70;2.47;;;30.80;74.00;;;;;;5093652;28;20209;-79
2023/06/26 12:34:29;;;;;;;2.70;2.50;;;30.70;75.00;;;;;;5093324;28;20267;-79
2023/06/26 12:37:02;;;;;;;2.53;2.33;;;30.70;74.10;;;;;;5093597;28;20214;-80
2023/06/26 12:39:29;;;;;;;3.42;2.90;;;30.60;74.10;;;;;;5093553;28;20252;-79
2023/06/26 12:42:01;;;;;;;3.85;3.45;;;30.60;74.80;;;;;;5093527;28;20262;-79
2023/06/26 12:44:29;;;;;;;2.65;2.45;;;30.50;74.40;;;;;;5093488;28;20190;-79
2023/06/26 12:46:58;;;;;;;3.40;2.33;;;30.40;75.20;;;;;;5093473;28;20189;-80
2023/06/26 12:49:33;;;;;;;2.55;2.25;;;30.30;75.20;;;;;;5093348;28;20224;-80
2023/06/26 12:52:00;;;;;;;2.60;2.40;;;30.20;76.00;;;;;;5093408;28;20181;-79